createdAt,value
2024-03-28T00:01:09.174Z,66.84
2024-03-28T00:03:37.315Z,66.84
2024-03-28T00:06:05.465Z,66.93
2024-03-28T00:08:33.980Z,67.01
2024-03-28T00:11:02.277Z,67.16
2024-03-28T00:13:30.627Z,67.31
2024-03-28T00:16:03.931Z,67.39
2024-03-28T00:18:33.836Z,67.45
2024-03-28T00:21:04.278Z,67.61
2024-03-28T00:23:33.297Z,67.70
2024-03-28T00:26:01.544Z,67.83
2024-03-28T00:28:29.683Z,67.96
2024-03-28T00:30:58.092Z,68.16
2024-03-28T00:33:26.005Z,68.28
2024-03-28T00:35:54.148Z,68.47
2024-03-28T00:38:22.050Z,68.53
2024-03-28T00:40:52.427Z,68.55
2024-03-28T00:43:21.894Z,68.67
2024-03-28T00:45:51.240Z,68.91
2024-03-28T00:48:20.438Z,69.01
2024-03-28T00:50:56.184Z,69.10
2024-03-28T00:53:24.859Z,69.08
2024-03-28T00:55:54.435Z,69.22
2024-03-28T00:58:23.373Z,69.33
2024-03-28T01:00:51.419Z,69.36
2024-03-28T01:03:19.408Z,69.53
2024-03-28T01:05:58.222Z,69.61
2024-03-28T01:08:27.220Z,69.44
2024-03-28T01:10:56.487Z,69.61
2024-03-28T01:13:25.011Z,70.01
2024-03-28T01:15:53.125Z,69.71
2024-03-28T01:18:21.145Z,69.84
2024-03-28T01:20:49.120Z,69.99
2024-03-28T01:23:17.212Z,69.77
2024-03-28T01:25:45.069Z,69.82
2024-03-28T01:28:13.956Z,69.77
2024-03-28T01:30:42.056Z,69.89
2024-03-28T01:33:09.930Z,70.13
2024-03-28T01:35:38.393Z,70.22
2024-03-28T01:38:06.378Z,70.18
2024-03-28T01:40:34.197Z,70.22
2024-03-28T01:43:08.959Z,70.44
2024-03-28T01:45:37.101Z,70.38
2024-03-28T01:48:06.592Z,70.28
2024-03-28T01:50:35.298Z,70.18
2024-03-28T01:53:04.291Z,70.15
2024-03-28T01:55:32.462Z,69.99
2024-03-28T01:58:02.202Z,69.92
2024-03-28T02:00:30.561Z,69.78
2024-03-28T02:03:00.233Z,69.67
2024-03-28T02:05:28.736Z,69.50
2024-03-28T02:07:56.695Z,69.36
2024-03-28T02:10:24.583Z,69.34
2024-03-28T02:12:52.489Z,69.20
2024-03-28T02:15:20.851Z,69.11
2024-03-28T02:17:52.173Z,69.06
2024-03-28T02:20:20.164Z,68.96
2024-03-28T02:22:48.423Z,68.88
2024-03-28T02:25:17.347Z,68.86
2024-03-28T02:27:45.594Z,68.84
2024-03-28T02:30:14.160Z,68.87
2024-03-28T02:32:42.443Z,68.88
2024-03-28T02:35:10.824Z,68.87
2024-03-28T02:37:38.973Z,68.87
2024-03-28T02:40:08.809Z,68.91
2024-03-28T02:42:36.688Z,68.99
2024-03-28T02:45:05.290Z,69.09
2024-03-28T02:47:33.261Z,69.20
2024-03-28T02:50:01.227Z,69.32
2024-03-28T02:52:29.502Z,69.39
2024-03-28T02:54:58.072Z,69.41
2024-03-28T02:57:26.776Z,69.49
2024-03-28T02:59:54.836Z,69.54
2024-03-28T03:02:22.777Z,69.46
2024-03-28T03:04:50.711Z,69.45
2024-03-28T03:07:18.985Z,69.41
2024-03-28T03:09:47.608Z,69.33
2024-03-28T03:12:15.621Z,69.39
2024-03-28T03:14:44.304Z,69.29
2024-03-28T03:17:12.375Z,69.31
2024-03-28T03:19:41.540Z,69.37
2024-03-28T03:22:09.711Z,69.31
2024-03-28T03:24:40.135Z,69.36
2024-03-28T03:27:17.299Z,69.49
2024-03-28T03:30:04.229Z,69.49
2024-03-28T03:32:51.116Z,69.49
2024-03-28T03:35:19.220Z,69.57
2024-03-28T03:37:47.571Z,69.62
2024-03-28T03:40:15.778Z,69.65
2024-03-28T03:42:43.958Z,69.66
2024-03-28T03:45:12.574Z,69.74
2024-03-28T03:47:40.427Z,69.78
2024-03-28T03:50:09.110Z,69.79
2024-03-28T03:52:37.015Z,69.90
2024-03-28T03:55:06.137Z,70.03
2024-03-28T03:57:34.104Z,70.14
2024-03-28T04:00:01.997Z,70.19
2024-03-28T04:02:33.641Z,70.44
2024-03-28T04:05:02.102Z,70.64
2024-03-28T04:07:30.003Z,70.73
2024-03-28T04:09:59.773Z,71.11
2024-03-28T04:12:27.929Z,71.36
2024-03-28T04:14:55.820Z,71.58
2024-03-28T04:17:23.703Z,71.79
2024-03-28T04:19:52.815Z,72.02
2024-03-28T04:22:22.806Z,72.15
2024-03-28T04:24:54.612Z,72.35
2024-03-28T04:27:23.363Z,72.48
2024-03-28T04:29:56.284Z,72.56
2024-03-28T04:32:32.080Z,72.59
2024-03-28T04:34:59.902Z,72.86
2024-03-28T04:37:28.050Z,72.86
2024-03-28T04:39:56.953Z,72.94
2024-03-28T04:42:25.198Z,73.09
2024-03-28T04:44:53.265Z,73.19
2024-03-28T04:47:21.189Z,73.37
2024-03-28T04:49:49.102Z,73.29
2024-03-28T04:52:16.961Z,73.43
2024-03-28T04:54:44.931Z,73.56
2024-03-28T04:57:12.758Z,73.58
2024-03-28T04:59:40.867Z,73.62
2024-03-28T05:02:08.942Z,73.51
2024-03-28T05:04:36.832Z,73.61
2024-03-28T05:07:06.150Z,73.57
2024-03-28T05:09:34.149Z,73.56
2024-03-28T05:12:02.064Z,73.85
2024-03-28T05:14:31.333Z,73.75
2024-03-28T05:17:00.537Z,73.75
2024-03-28T05:19:28.481Z,73.94
2024-03-28T05:21:56.685Z,74.15
2024-03-28T05:24:24.821Z,74.52
2024-03-28T05:26:53.206Z,74.85
2024-03-28T05:29:21.586Z,75.08
2024-03-28T05:31:50.196Z,75.15
2024-03-28T05:34:18.663Z,75.15
2024-03-28T05:36:46.613Z,75.31
2024-03-28T05:39:15.894Z,75.33
2024-03-28T05:41:44.059Z,75.42
2024-03-28T05:44:12.089Z,75.38
2024-03-28T05:46:41.023Z,75.36
2024-03-28T05:49:09.294Z,75.31
2024-03-28T05:51:37.572Z,75.36
2024-03-28T05:54:05.954Z,75.46
2024-03-28T05:56:36.223Z,75.43
2024-03-28T05:59:05.267Z,75.37
2024-03-28T06:01:34.108Z,75.24
2024-03-28T06:04:02.984Z,75.17
2024-03-28T06:06:31.565Z,75.07
2024-03-28T06:09:00.014Z,75.02
2024-03-28T06:11:28.696Z,74.81
2024-03-28T06:14:10.799Z,74.59
2024-03-28T06:16:40.215Z,74.38
2024-03-28T06:19:09.190Z,74.11
2024-03-28T06:21:37.203Z,73.87
2024-03-28T06:24:06.678Z,73.64
2024-03-28T06:26:37.606Z,73.41
2024-03-28T06:29:10.192Z,73.17
2024-03-28T06:31:41.445Z,72.94
2024-03-28T06:34:09.543Z,72.80
2024-03-28T06:36:37.686Z,72.54
2024-03-28T06:39:07.499Z,72.42
2024-03-28T06:41:35.870Z,72.39
2024-03-28T06:44:04.043Z,72.34
2024-03-28T06:46:32.044Z,72.06
2024-03-28T06:49:00.698Z,71.44
2024-03-28T06:51:28.977Z,71.16
2024-03-28T06:53:57.180Z,70.34
2024-03-28T06:56:25.910Z,69.41
2024-03-28T06:58:54.587Z,68.98
2024-03-28T07:01:22.498Z,68.89
2024-03-28T07:03:51.663Z,68.85
2024-03-28T07:06:23.686Z,68.85
2024-03-28T07:08:52.001Z,68.88
2024-03-28T07:11:20.276Z,69.02
2024-03-28T07:13:50.925Z,69.09
2024-03-28T07:16:19.893Z,68.81
2024-03-28T07:18:48.482Z,68.66
2024-03-28T07:21:16.969Z,68.38
2024-03-28T07:23:45.648Z,67.61
2024-03-28T07:26:13.927Z,67.13
2024-03-28T07:28:43.010Z,67.19
2024-03-28T07:31:11.705Z,67.06
2024-03-28T07:33:40.411Z,67.26
2024-03-28T07:36:10.005Z,67.42
2024-03-28T07:38:39.136Z,67.29
2024-03-28T07:41:07.275Z,67.17
2024-03-28T07:43:35.584Z,67.14
2024-03-28T07:46:05.322Z,67.41
2024-03-28T07:48:36.763Z,67.68
2024-03-28T07:51:06.056Z,67.89
2024-03-28T07:53:34.860Z,67.87
2024-03-28T07:56:03.217Z,67.66
2024-03-28T07:58:32.767Z,67.24
2024-03-28T08:01:05.502Z,67.11
2024-03-28T08:03:35.747Z,67.09
2024-03-28T08:06:08.526Z,67.02
2024-03-28T08:08:37.417Z,66.49
2024-03-28T08:11:08.767Z,66.81
2024-03-28T08:13:37.363Z,66.60
2024-03-28T08:16:06.254Z,66.76
2024-03-28T08:18:34.708Z,67.15
2024-03-28T08:21:03.984Z,67.54
2024-03-28T08:23:33.917Z,67.97
2024-03-28T08:26:02.756Z,68.43
2024-03-28T08:28:31.577Z,68.82
2024-03-28T08:31:00.817Z,69.18
2024-03-28T08:33:35.338Z,69.39
2024-03-28T08:36:04.163Z,69.70
2024-03-28T08:38:33.115Z,70.00
2024-03-28T08:41:02.110Z,70.28
2024-03-28T08:43:31.518Z,70.43
2024-03-28T08:46:00.118Z,70.55
2024-03-28T08:48:28.674Z,70.71
2024-03-28T08:51:00.023Z,70.72
2024-03-28T08:53:31.670Z,70.53
2024-03-28T08:56:01.958Z,70.42
2024-03-28T08:58:30.807Z,70.39
2024-03-28T09:00:59.267Z,70.44
2024-03-28T09:03:28.434Z,70.42
2024-03-28T09:05:57.311Z,70.38
2024-03-28T09:08:25.520Z,70.07
2024-03-28T09:10:55.721Z,69.87
2024-03-28T09:13:23.791Z,69.63
2024-03-28T09:15:52.172Z,69.49
2024-03-28T09:18:20.551Z,69.28
2024-03-28T09:20:49.594Z,69.11
2024-03-28T09:23:19.412Z,69.02
2024-03-28T09:25:48.034Z,68.93
2024-03-28T09:28:16.942Z,68.76
2024-03-28T09:30:46.139Z,68.63
2024-03-28T09:33:14.875Z,68.35
2024-03-28T09:35:43.299Z,68.10
2024-03-28T09:38:11.675Z,67.93
2024-03-28T09:41:01.248Z,67.71
2024-03-28T09:43:29.997Z,67.47
2024-03-28T09:46:00.375Z,67.31
2024-03-28T09:48:29.262Z,67.21
2024-03-28T09:50:57.711Z,66.98
2024-03-28T09:53:27.467Z,66.81
2024-03-28T09:55:55.613Z,66.55
2024-03-28T09:58:23.807Z,66.27
2024-03-28T10:00:57.091Z,65.81
2024-03-28T10:03:33.996Z,65.28
2024-03-28T10:06:02.356Z,64.92
2024-03-28T10:08:31.944Z,64.56
2024-03-28T10:11:01.371Z,64.34
2024-03-28T10:13:40.208Z,64.30
2024-03-28T10:16:08.493Z,64.21
2024-03-28T10:18:38.275Z,63.93
2024-03-28T10:21:08.023Z,63.94
2024-03-28T10:23:40.762Z,63.64
2024-03-28T10:26:12.210Z,63.66
2024-03-28T10:28:43.330Z,63.41
2024-03-28T10:31:11.816Z,63.35
2024-03-28T10:33:45.040Z,63.13
2024-03-28T10:36:25.916Z,63.14
2024-03-28T10:39:04.194Z,63.27
2024-03-28T10:41:32.348Z,63.35
2024-03-28T10:44:02.381Z,62.86
2024-03-28T10:46:30.984Z,62.69
2024-03-28T10:49:11.217Z,62.36
2024-03-28T10:51:45.220Z,62.12
2024-03-28T10:54:44.506Z,62.12
2024-03-28T10:57:14.572Z,62.33
2024-03-28T10:59:43.933Z,61.79
2024-03-28T11:02:18.880Z,61.23
2024-03-28T11:04:48.470Z,61.43
2024-03-28T11:07:17.051Z,61.34
2024-03-28T11:09:45.943Z,61.04
2024-03-28T11:12:14.533Z,60.19
2024-03-28T11:14:54.818Z,59.67
2024-03-28T11:17:23.532Z,59.40
2024-03-28T11:20:10.110Z,58.95
2024-03-28T11:22:38.385Z,58.68
2024-03-28T11:25:47.793Z,58.66
2024-03-28T11:28:16.289Z,59.03
2024-03-28T11:30:55.209Z,58.14
2024-03-28T11:33:35.215Z,57.92
2024-03-28T11:36:06.111Z,58.23
2024-03-28T11:38:35.570Z,57.97
2024-03-28T11:41:09.136Z,57.31
2024-03-28T11:43:37.819Z,57.28
2024-03-28T11:46:06.115Z,57.22
2024-03-28T11:48:36.892Z,57.09
2024-03-28T11:51:07.077Z,56.59
2024-03-28T11:53:38.488Z,56.69
2024-03-28T11:56:08.319Z,56.62
2024-03-28T11:58:37.207Z,56.36
2024-03-28T12:01:06.988Z,56.19
2024-03-28T12:03:37.860Z,55.17
2024-03-28T12:06:09.336Z,53.86
2024-03-28T12:08:42.804Z,54.14
2024-03-28T12:11:11.727Z,53.09
2024-03-28T12:13:40.452Z,52.02
2024-03-28T12:16:08.795Z,51.26
2024-03-28T12:18:37.899Z,51.83
2024-03-28T12:21:07.189Z,52.28
2024-03-28T12:23:36.885Z,50.82
2024-03-28T12:26:05.485Z,49.84
2024-03-28T12:28:34.374Z,49.64
2024-03-28T12:31:03.679Z,49.75
2024-03-28T12:33:32.248Z,48.93
2024-03-28T12:36:00.740Z,48.57
2024-03-28T12:38:29.110Z,49.09
2024-03-28T12:40:57.998Z,49.72
2024-03-28T12:43:26.502Z,49.83
2024-03-28T12:46:05.490Z,49.83
2024-03-28T12:48:33.954Z,49.82
2024-03-28T12:51:02.572Z,49.61
2024-03-28T12:53:31.340Z,49.94
2024-03-28T12:56:00.137Z,49.84
2024-03-28T12:58:28.858Z,49.38
2024-03-28T13:00:57.715Z,49.13
2024-03-28T13:03:26.795Z,48.14
2024-03-28T13:05:58.142Z,47.90
2024-03-28T13:08:27.247Z,47.39
2024-03-28T13:10:55.625Z,47.17
2024-03-28T13:13:24.105Z,47.57
2024-03-28T13:15:52.496Z,47.28
2024-03-28T13:18:20.846Z,47.18
2024-03-28T13:20:51.081Z,47.22
2024-03-28T13:23:19.558Z,46.90
2024-03-28T13:25:56.265Z,44.88
2024-03-28T13:28:34.589Z,45.08
2024-03-28T13:31:03.228Z,44.25
2024-03-28T13:33:31.929Z,44.49
2024-03-28T13:36:00.446Z,44.35
2024-03-28T13:38:29.296Z,44.01
2024-03-28T13:40:58.176Z,43.26
2024-03-28T13:43:27.704Z,43.06
2024-03-28T13:45:55.964Z,42.63
2024-03-28T13:48:24.345Z,42.48
2024-03-28T13:50:52.722Z,42.29
2024-03-28T13:53:21.558Z,42.48
2024-03-28T13:55:49.974Z,42.68
2024-03-28T13:58:18.358Z,42.51
2024-03-28T14:00:47.461Z,41.67
2024-03-28T14:03:17.276Z,41.28
2024-03-28T14:05:45.620Z,40.45
2024-03-28T14:08:14.047Z,40.21
2024-03-28T14:10:43.750Z,40.37
2024-03-28T14:13:12.182Z,40.85
2024-03-28T14:15:40.866Z,40.47
2024-03-28T14:18:09.258Z,40.18
2024-03-28T14:20:41.746Z,40.36
2024-03-28T14:23:10.007Z,39.94
2024-03-28T14:25:38.606Z,39.68
2024-03-28T14:28:07.079Z,39.84
2024-03-28T14:30:37.508Z,39.87
2024-03-28T14:33:05.874Z,40.43
2024-03-28T14:35:34.058Z,40.60
2024-03-28T14:38:02.337Z,40.65
2024-03-28T14:40:31.014Z,40.59
2024-03-28T14:42:59.529Z,40.83
2024-03-28T14:45:27.877Z,41.01
2024-03-28T14:47:58.208Z,40.83
2024-03-28T14:50:26.680Z,40.74
2024-03-28T14:52:57.346Z,40.93
2024-03-28T14:55:25.692Z,41.39
2024-03-28T14:57:53.747Z,41.42
2024-03-28T15:00:22.327Z,40.74
2024-03-28T15:02:50.601Z,40.51
2024-03-28T15:05:18.757Z,40.49
2024-03-28T15:07:46.833Z,40.75
2024-03-28T15:10:15.215Z,41.07
2024-03-28T15:12:43.591Z,41.38
2024-03-28T15:15:11.689Z,41.46
2024-03-28T15:17:39.826Z,41.57
2024-03-28T15:20:08.556Z,41.77
2024-03-28T15:22:39.065Z,41.94
2024-03-28T15:25:08.296Z,41.86
2024-03-28T15:27:36.933Z,41.80
2024-03-28T15:30:05.751Z,41.84
2024-03-28T15:32:34.311Z,41.95
2024-03-28T15:35:03.074Z,42.18
2024-03-28T15:37:31.452Z,42.36
2024-03-28T15:40:15.757Z,42.51
2024-03-28T15:43:22.971Z,42.84
2024-03-28T15:45:51.469Z,42.92
2024-03-28T15:48:20.340Z,43.04
2024-03-28T15:50:51.153Z,43.09
2024-03-28T15:53:20.486Z,43.19
2024-03-28T15:55:49.781Z,43.28
2024-03-28T15:58:18.467Z,43.43
2024-03-28T16:00:48.168Z,43.55
2024-03-28T16:03:17.680Z,43.78
2024-03-28T16:05:50.782Z,43.61
2024-03-28T16:08:22.102Z,43.90
2024-03-28T16:10:55.990Z,44.16
2024-03-28T16:13:24.566Z,44.31
2024-03-28T16:15:53.064Z,44.40
2024-03-28T16:18:22.107Z,44.53
2024-03-28T16:20:50.431Z,44.78
2024-03-28T16:23:20.454Z,44.79
2024-03-28T16:25:56.110Z,44.86
2024-03-28T16:28:24.419Z,44.88
2024-03-28T16:30:57.147Z,44.73
2024-03-28T16:33:25.317Z,44.77
2024-03-28T16:35:57.375Z,44.69
2024-03-28T16:38:26.655Z,44.51
2024-03-28T16:40:54.751Z,44.40
2024-03-28T16:43:23.183Z,44.19
2024-03-28T16:45:56.222Z,44.09
2024-03-28T16:48:24.700Z,44.21
2024-03-28T16:50:52.882Z,44.09
2024-03-28T16:53:21.055Z,43.72
2024-03-28T16:55:53.213Z,44.05
2024-03-28T16:58:21.287Z,44.38
2024-03-28T17:00:49.879Z,44.62
2024-03-28T17:03:18.666Z,44.66
2024-03-28T17:05:48.295Z,44.88
2024-03-28T17:08:19.519Z,45.26
2024-03-28T17:10:49.660Z,45.62
2024-03-28T17:13:19.475Z,46.08
2024-03-28T17:16:14.463Z,46.40
2024-03-28T17:18:43.456Z,46.76
2024-03-28T17:21:11.746Z,47.02
2024-03-28T17:23:40.614Z,47.37
2024-03-28T17:26:10.417Z,47.65
2024-03-28T17:28:40.279Z,47.98
2024-03-28T17:31:13.776Z,48.39
2024-03-28T17:33:42.139Z,48.69
2024-03-28T17:36:10.191Z,48.96
2024-03-28T17:38:38.874Z,49.23
2024-03-28T17:41:08.674Z,49.47
2024-03-28T17:43:36.887Z,49.83
2024-03-28T17:46:05.860Z,50.03
2024-03-28T17:48:34.031Z,50.29
2024-03-28T17:51:05.846Z,50.45
2024-03-28T17:53:34.859Z,50.75
2024-03-28T17:56:04.253Z,50.85
2024-03-28T17:58:33.182Z,51.16
2024-03-28T18:01:04.452Z,51.40
2024-03-28T18:03:33.495Z,51.57
2024-03-28T18:06:01.840Z,51.79
2024-03-28T18:08:30.361Z,52.01
2024-03-28T18:10:58.734Z,52.11
2024-03-28T18:13:27.109Z,52.21
2024-03-28T18:15:56.578Z,52.34
2024-03-28T18:18:25.987Z,52.45
2024-03-28T18:21:01.841Z,52.46
2024-03-28T18:23:30.907Z,52.67
2024-03-28T18:26:00.198Z,52.78
2024-03-28T18:28:30.199Z,52.78
2024-03-28T18:31:04.402Z,52.81
2024-03-28T18:33:34.268Z,52.91
2024-03-28T18:36:03.099Z,52.95
2024-03-28T18:38:31.709Z,52.97
2024-03-28T18:41:08.519Z,53.13
2024-03-28T18:43:37.209Z,53.22
2024-03-28T18:46:05.996Z,53.33
2024-03-28T18:48:34.490Z,53.31
2024-03-28T18:51:03.057Z,53.57
2024-03-28T18:53:31.320Z,53.59
2024-03-28T18:56:01.374Z,53.63
2024-03-28T18:58:30.849Z,53.68
2024-03-28T19:00:58.916Z,53.65
2024-03-28T19:03:29.650Z,53.52
2024-03-28T19:05:58.749Z,53.57
2024-03-28T19:08:27.620Z,53.56
2024-03-28T19:10:56.214Z,53.56
2024-03-28T19:13:25.187Z,53.54
2024-03-28T19:15:55.620Z,53.52
2024-03-28T19:18:27.577Z,53.51
2024-03-28T19:20:59.135Z,53.50
2024-03-28T19:23:28.743Z,53.52
2024-03-28T19:25:57.631Z,53.59
2024-03-28T19:28:26.388Z,53.63
2024-03-28T19:30:54.859Z,53.64
2024-03-28T19:33:23.537Z,53.77
2024-03-28T19:35:53.218Z,53.73
2024-03-28T19:38:24.150Z,53.81
2024-03-28T19:41:00.588Z,53.81
2024-03-28T19:43:30.589Z,53.84
2024-03-28T19:45:59.872Z,53.86
2024-03-28T19:48:29.677Z,53.91
2024-03-28T19:50:59.714Z,54.02
2024-03-28T19:53:28.702Z,54.05
2024-03-28T19:55:57.831Z,54.19
2024-03-28T19:58:27.106Z,54.21
2024-03-28T20:00:56.746Z,54.28
2024-03-28T20:03:25.918Z,54.31
2024-03-28T20:05:56.791Z,54.44
2024-03-28T20:08:27.812Z,54.56
2024-03-28T20:10:57.196Z,54.59
2024-03-28T20:13:25.773Z,54.74
2024-03-28T20:15:54.676Z,54.78
2024-03-28T20:18:23.347Z,54.85
2024-03-28T20:20:51.822Z,54.97
2024-03-28T20:23:22.060Z,55.11
2024-03-28T20:25:51.451Z,55.23
2024-03-28T20:28:19.968Z,55.37
2024-03-28T20:30:54.723Z,55.43
2024-03-28T20:33:23.488Z,55.56
2024-03-28T20:35:52.607Z,55.66
2024-03-28T20:38:23.284Z,55.79
2024-03-28T20:40:56.542Z,55.89
2024-03-28T20:43:26.366Z,55.98
2024-03-28T20:45:55.863Z,56.11
2024-03-28T20:48:25.330Z,56.18
2024-03-28T20:50:55.655Z,56.29
2024-03-28T20:53:26.110Z,56.48
2024-03-28T20:55:56.926Z,56.53
2024-03-28T20:58:26.511Z,56.66
2024-03-28T21:00:55.806Z,56.76
2024-03-28T21:03:25.118Z,56.99
2024-03-28T21:06:32.806Z,57.05
2024-03-28T21:09:20.844Z,57.14
2024-03-28T21:11:50.064Z,57.29
2024-03-28T21:14:19.550Z,57.48
2024-03-28T21:16:48.034Z,57.60
2024-03-28T21:19:17.486Z,57.70
2024-03-28T21:21:45.907Z,57.86
2024-03-28T21:24:14.632Z,57.94
2024-03-28T21:26:43.191Z,57.94
2024-03-28T21:29:11.577Z,58.03
2024-03-28T21:31:39.951Z,58.17
2024-03-28T21:34:08.417Z,58.31
2024-03-28T21:36:38.147Z,58.46
2024-03-28T21:39:06.716Z,58.43
2024-03-28T21:41:38.181Z,58.48
2024-03-28T21:44:08.251Z,58.48
2024-03-28T21:46:36.940Z,58.52
2024-03-28T21:49:40.813Z,58.48
2024-03-28T21:52:09.589Z,58.55
2024-03-28T21:54:37.959Z,58.55
2024-03-28T21:57:09.906Z,58.55
2024-03-28T21:59:41.057Z,58.61
2024-03-28T22:02:09.848Z,58.72
2024-03-28T22:04:39.145Z,58.67
2024-03-28T22:07:07.329Z,58.66
2024-03-28T22:09:37.060Z,58.72
2024-03-28T22:12:09.700Z,58.69
2024-03-28T22:14:40.241Z,58.71
2024-03-28T22:17:09.377Z,58.70
2024-03-28T22:19:39.173Z,58.68
2024-03-28T22:22:07.319Z,58.66
2024-03-28T22:24:36.277Z,58.61
2024-03-28T22:27:04.493Z,58.60
2024-03-28T22:29:32.770Z,58.63
2024-03-28T22:32:01.154Z,58.68
2024-03-28T22:34:30.551Z,58.70
2024-03-28T22:36:58.467Z,58.80
2024-03-28T22:39:26.591Z,58.89
2024-03-28T22:41:55.784Z,58.83
2024-03-28T22:44:24.376Z,58.83
2024-03-28T22:46:53.780Z,58.84
2024-03-28T22:49:21.847Z,58.94
2024-03-28T22:51:51.556Z,58.89
2024-03-28T22:54:20.745Z,58.93
2024-03-28T22:56:48.826Z,58.92
2024-03-28T22:59:16.896Z,58.95
2024-03-28T23:01:45.176Z,59.00
2024-03-28T23:04:13.245Z,59.05
2024-03-28T23:06:41.321Z,59.05
2024-03-28T23:09:09.585Z,59.13
2024-03-28T23:11:37.769Z,59.13
2024-03-28T23:14:05.946Z,59.18
2024-03-28T23:16:34.413Z,59.15
2024-03-28T23:19:03.038Z,59.27
2024-03-28T23:21:31.087Z,59.39
2024-03-28T23:23:59.244Z,59.62
2024-03-28T23:26:27.107Z,59.84
2024-03-28T23:28:55.493Z,60.11
2024-03-28T23:31:23.547Z,60.51
2024-03-28T23:33:52.297Z,60.95
2024-03-28T23:36:20.252Z,61.27
2024-03-28T23:38:50.847Z,61.51
2024-03-28T23:41:19.638Z,61.71
2024-03-28T23:43:47.744Z,62.10
2024-03-28T23:46:15.784Z,62.49
2024-03-28T23:48:44.471Z,62.74
2024-03-28T23:51:12.798Z,63.01
2024-03-28T23:53:40.821Z,63.34
2024-03-28T23:56:08.985Z,63.46
2024-03-28T23:58:36.865Z,63.75
